createdAt,value
2023-01-25T00:00:44.209Z,11.80
2023-01-25T00:05:47.380Z,11.47
2023-01-25T00:10:52.681Z,12.02
2023-01-25T00:16:02.831Z,11.88
2023-01-25T00:21:13.993Z,11.48
2023-01-25T00:26:17.625Z,10.60
2023-01-25T00:31:33.083Z,11.30
2023-01-25T00:36:42.653Z,10.48
2023-01-25T00:41:45.931Z,9.63
2023-01-25T00:46:50.964Z,10.70
2023-01-25T00:51:55.871Z,10.30
2023-01-25T00:56:59.043Z,11.57
2023-01-25T01:02:04.121Z,11.13
2023-01-25T01:07:07.386Z,10.07
2023-01-25T01:12:10.603Z,10.25
2023-01-25T01:17:15.170Z,10.65
2023-01-25T01:22:18.324Z,10.67
2023-01-25T01:27:21.455Z,10.05
2023-01-25T01:32:26.280Z,11.18
2023-01-25T01:37:29.530Z,10.15
2023-01-25T01:42:32.634Z,10.20
2023-01-25T01:47:46.029Z,9.93
2023-01-25T01:52:50.102Z,10.27
2023-01-25T01:57:58.089Z,11.65
2023-01-25T02:03:03.261Z,11.45
2023-01-25T02:08:07.985Z,11.57
2023-01-25T02:13:11.773Z,11.43
2023-01-25T02:18:17.308Z,11.23
2023-01-25T02:23:27.796Z,12.50
2023-01-25T02:28:36.467Z,12.10
2023-01-25T02:33:39.621Z,12.20
2023-01-25T02:38:46.732Z,11.10
2023-01-25T02:43:51.705Z,11.20
2023-01-25T02:48:55.648Z,9.98
2023-01-25T02:53:59.055Z,9.55
2023-01-25T02:59:05.823Z,9.32
2023-01-25T03:04:09.861Z,8.95
2023-01-25T03:09:13.716Z,8.63
2023-01-25T03:14:18.444Z,8.63
2023-01-25T03:19:21.607Z,7.97
2023-01-25T03:24:24.789Z,7.32
2023-01-25T03:29:29.363Z,7.30
2023-01-25T03:34:32.514Z,7.37
2023-01-25T03:39:35.695Z,6.95
2023-01-25T03:44:40.253Z,7.18
2023-01-25T03:49:43.542Z,7.30
2023-01-25T03:54:48.050Z,6.40
2023-01-25T03:59:52.568Z,7.03
2023-01-25T04:04:55.714Z,6.80
2023-01-25T04:09:58.829Z,6.65
2023-01-25T04:15:03.416Z,5.97
2023-01-25T04:20:07.782Z,6.20
2023-01-25T04:25:11.761Z,7.20
2023-01-25T04:30:17.036Z,6.53
2023-01-25T04:35:20.987Z,5.63
2023-01-25T04:40:24.131Z,5.55
2023-01-25T04:45:28.709Z,4.90
2023-01-25T04:50:32.411Z,4.90
2023-01-25T04:55:35.624Z,5.03
2023-01-25T05:00:40.221Z,4.35
2023-01-25T05:05:47.516Z,3.97
2023-01-25T05:10:50.694Z,3.90
2023-01-25T05:15:57.414Z,3.95
2023-01-25T05:21:00.554Z,4.32
2023-01-25T05:26:32.480Z,4.15
2023-01-25T05:31:37.138Z,3.85
2023-01-25T05:36:40.336Z,3.77
2023-01-25T05:41:43.495Z,3.83
2023-01-25T05:46:48.303Z,3.80
2023-01-25T05:51:51.507Z,3.70
2023-01-25T05:56:54.628Z,3.30
2023-01-25T06:01:59.204Z,3.15
2023-01-25T06:07:02.348Z,3.20
2023-01-25T06:12:06.894Z,2.60
2023-01-25T06:17:11.450Z,2.90
2023-01-25T06:22:14.567Z,2.90
2023-01-25T06:27:17.730Z,2.80
2023-01-25T06:32:22.325Z,3.10
2023-01-25T06:37:25.476Z,2.87
2023-01-25T06:42:28.634Z,2.88
2023-01-25T06:47:33.171Z,2.95
2023-01-25T06:52:37.052Z,2.67
2023-01-25T06:57:40.201Z,2.58
2023-01-25T07:02:44.871Z,2.45
2023-01-25T07:07:48.542Z,3.13
2023-01-25T07:12:51.665Z,2.97
2023-01-25T07:18:01.160Z,2.60
2023-01-25T07:23:09.259Z,2.75
2023-01-25T07:28:12.392Z,2.75
2023-01-25T07:33:16.939Z,2.70
2023-01-25T07:38:20.083Z,2.57
2023-01-25T07:43:23.255Z,2.60
2023-01-25T07:48:27.897Z,2.45
2023-01-25T07:53:31.043Z,2.40
2023-01-25T07:58:34.255Z,2.70
2023-01-25T08:03:39.313Z,2.50
2023-01-25T08:08:44.799Z,2.60
2023-01-25T08:13:49.719Z,2.85
2023-01-25T08:18:56.147Z,2.95
2023-01-25T08:23:59.929Z,3.10
2023-01-25T08:29:03.361Z,3.13
2023-01-25T08:34:08.819Z,3.00
2023-01-25T08:44:16.084Z,2.67
2023-01-25T08:49:20.799Z,3.10
2023-01-25T08:54:24.550Z,3.40
2023-01-25T08:59:27.953Z,3.55
2023-01-25T09:04:32.530Z,3.33
2023-01-25T09:09:35.664Z,3.33
2023-01-25T09:14:40.414Z,3.80
2023-01-25T09:19:45.944Z,3.23
2023-01-25T09:24:52.370Z,2.63
2023-01-25T09:30:02.132Z,4.13
2023-01-25T09:35:08.363Z,4.30
2023-01-25T09:40:20.368Z,4.93
2023-01-25T09:45:32.096Z,4.90
2023-01-25T09:50:39.558Z,4.93
2023-01-25T09:55:43.279Z,5.40
2023-01-25T10:00:51.567Z,4.57
2023-01-25T10:06:01.158Z,4.28
2023-01-25T10:11:15.053Z,3.85
2023-01-25T10:16:28.476Z,4.70
2023-01-25T10:21:39.001Z,4.32
2023-01-25T10:26:46.588Z,4.65
2023-01-25T10:31:53.384Z,4.75
2023-01-25T10:36:59.487Z,3.95
2023-01-25T10:42:08.044Z,4.13
2023-01-25T10:47:22.879Z,4.03
2023-01-25T10:52:29.332Z,3.50
2023-01-25T10:57:32.795Z,3.70
2023-01-25T11:02:45.303Z,3.50
2023-01-25T11:07:50.295Z,4.65
2023-01-25T11:13:19.732Z,3.97
2023-01-25T11:18:25.352Z,4.18
2023-01-25T11:23:29.927Z,3.80
2023-01-25T11:28:33.088Z,3.60
2023-01-25T11:33:36.256Z,3.95
2023-01-25T11:38:49.537Z,3.72
2023-01-25T11:44:20.496Z,3.65
2023-01-25T11:49:35.951Z,3.58
2023-01-25T11:54:51.008Z,3.88
2023-01-25T12:00:11.242Z,3.40
2023-01-25T12:05:29.642Z,3.50
2023-01-25T12:10:46.043Z,4.07
2023-01-25T12:16:13.098Z,4.22
2023-01-25T12:21:31.843Z,4.32
2023-01-25T12:26:49.623Z,3.78
2023-01-25T12:31:58.396Z,3.75
2023-01-25T12:37:07.280Z,3.80
2023-01-25T12:42:20.035Z,4.20
2023-01-25T12:47:33.455Z,3.70
2023-01-25T12:52:40.319Z,3.55
2023-01-25T12:57:54.424Z,3.53
2023-01-25T13:03:29.425Z,4.00
2023-01-25T13:08:43.662Z,4.30
2023-01-25T13:13:48.389Z,4.28
2023-01-25T13:18:51.700Z,4.10
2023-01-25T13:24:24.262Z,4.25
2023-01-25T13:29:47.340Z,4.63
2023-01-25T13:35:00.701Z,4.45
2023-01-25T13:40:06.417Z,4.38
2023-01-25T13:45:20.032Z,3.85
2023-01-25T13:50:27.046Z,3.58
2023-01-25T13:55:38.821Z,3.78
2023-01-25T14:00:51.550Z,3.65
2023-01-25T14:05:57.709Z,3.85
2023-01-25T14:11:01.107Z,3.92
2023-01-25T14:16:11.678Z,3.38
2023-01-25T14:21:18.777Z,3.78
2023-01-25T14:26:25.184Z,3.40
2023-01-25T14:31:34.940Z,4.20
2023-01-25T14:36:38.179Z,3.60
2023-01-25T14:41:51.702Z,2.97
2023-01-25T14:47:30.160Z,3.35
2023-01-25T14:52:33.335Z,3.88
2023-01-25T14:57:39.311Z,3.70
2023-01-25T15:02:48.385Z,3.92
2023-01-25T15:07:54.022Z,3.60
2023-01-25T15:13:11.608Z,3.50
2023-01-25T15:18:45.198Z,3.25
2023-01-25T15:23:50.355Z,2.65
2023-01-25T15:28:55.061Z,2.70
2023-01-25T15:39:03.453Z,3.55
2023-01-25T15:44:07.247Z,4.05
2023-01-25T15:49:18.266Z,3.70
2023-01-25T15:54:21.472Z,3.88
2023-01-25T15:59:25.226Z,4.00
2023-01-25T16:04:29.785Z,4.25
2023-01-25T16:09:33.436Z,3.97
2023-01-25T16:14:36.653Z,3.80
2023-01-25T16:19:41.174Z,4.13
2023-01-25T16:24:44.783Z,4.43
2023-01-25T16:29:48.252Z,4.50
2023-01-25T16:34:52.866Z,5.20
2023-01-25T16:39:56.034Z,5.60
2023-01-25T16:44:59.275Z,5.45
2023-01-25T16:50:03.860Z,4.70
2023-01-25T16:55:07.932Z,4.60
2023-01-25T17:00:14.426Z,5.05
2023-01-25T17:05:19.216Z,4.70
2023-01-25T17:10:22.424Z,5.93
2023-01-25T17:15:25.739Z,6.93
2023-01-25T17:20:30.304Z,7.10
2023-01-25T17:25:35.591Z,6.80
2023-01-25T17:30:41.584Z,7.30
2023-01-25T17:35:46.340Z,53.13
2023-01-25T17:40:49.754Z,93.85
2023-01-25T17:45:52.939Z,27.02
2023-01-25T17:51:04.302Z,11.77
2023-01-25T17:56:08.631Z,12.60
2023-01-25T18:01:14.409Z,14.13
2023-01-25T18:06:21.416Z,15.18
2023-01-25T18:11:27.395Z,15.93
2023-01-25T18:16:33.233Z,17.10
2023-01-25T18:21:38.865Z,17.05
2023-01-25T18:26:42.826Z,17.67
2023-01-25T18:31:46.473Z,18.30
2023-01-25T18:36:51.070Z,15.52
2023-01-25T18:41:54.318Z,16.17
2023-01-25T18:46:57.702Z,16.75
2023-01-25T18:52:11.316Z,17.45
2023-01-25T18:57:15.941Z,17.95
2023-01-25T19:02:20.126Z,16.23
2023-01-25T19:07:24.777Z,15.38
2023-01-25T19:12:27.984Z,17.13
2023-01-25T19:17:32.915Z,17.02
2023-01-25T19:22:37.546Z,15.40
2023-01-25T19:27:40.788Z,15.17
2023-01-25T19:32:43.987Z,17.02
2023-01-25T19:37:48.715Z,16.73
2023-01-25T19:42:51.976Z,15.40
2023-01-25T19:47:55.466Z,16.13
2023-01-25T19:53:01.543Z,16.70
2023-01-25T19:58:04.806Z,17.00
2023-01-25T20:03:16.299Z,15.98
2023-01-25T20:08:21.388Z,15.48
2023-01-25T20:13:24.638Z,16.33
2023-01-25T20:18:28.261Z,17.27
2023-01-25T20:23:35.275Z,17.42
2023-01-25T20:28:39.107Z,17.80
2023-01-25T20:33:42.330Z,17.92
2023-01-25T20:38:47.317Z,17.23
2023-01-25T20:43:52.215Z,18.27
2023-01-25T20:48:55.897Z,18.80
2023-01-25T20:54:00.541Z,17.95
2023-01-25T20:59:03.869Z,19.43
2023-01-25T21:04:09.853Z,18.15
2023-01-25T21:09:14.494Z,19.02
2023-01-25T21:14:19.784Z,18.57
2023-01-25T21:24:27.731Z,17.52
2023-01-25T21:29:30.998Z,17.37
2023-01-25T21:34:34.280Z,16.70
2023-01-25T21:39:38.892Z,16.90
2023-01-25T21:44:59.587Z,18.00
2023-01-25T21:50:20.266Z,16.65
2023-01-25T21:55:24.975Z,16.58
2023-01-25T22:00:28.301Z,17.07
2023-01-25T22:05:31.521Z,17.10
2023-01-25T22:10:36.163Z,16.05
2023-01-25T22:15:39.433Z,17.17
2023-01-25T22:20:42.690Z,17.27
2023-01-25T22:25:48.998Z,15.80
2023-01-25T22:30:52.275Z,17.35
2023-01-25T22:35:55.567Z,17.30
2023-01-25T22:41:04.968Z,17.10
2023-01-25T22:46:09.867Z,17.10
2023-01-25T22:51:15.293Z,17.25
2023-01-25T23:01:25.810Z,17.58
2023-01-25T23:06:31.271Z,18.40
2023-01-25T23:11:37.802Z,18.15
2023-01-25T23:16:41.106Z,18.30
2023-01-25T23:21:44.375Z,17.58
2023-01-25T23:26:48.960Z,18.25
2023-01-25T23:31:52.210Z,18.27
2023-01-25T23:36:55.578Z,16.83
2023-01-25T23:42:00.207Z,17.98
2023-01-25T23:47:03.447Z,16.93
2023-01-25T23:52:06.746Z,17.05
2023-01-25T23:57:11.404Z,17.70
